Time;durP1;ratioP1;P1;durP2;ratioP2;P2;SDS_P1;SDS_P2;PMS_P1;PMS_P2;Temp;Humidity;BMP_temperature;BMP_pressure;BME280_temperature;BME280_humidity;BME280_pressure;Samples;Min_cycle;Max_cycle;Signal;HPM_P1;HPM_P2
2024/02/27 00:02:02;;;;;;;3.65;2.50;;;;;;;3.33;100.00;96970.56;1224158;75;2917410;-65
2024/02/27 00:04:35;;;;;;;4.20;2.40;;;;;;;3.54;100.00;96969.00;1225324;75;2918967;-64
2024/02/27 00:07:08;;;;;;;3.55;2.70;;;;;;;3.12;100.00;96966.69;1224939;75;2925482;-64
2024/02/27 00:09:41;;;;;;;4.40;2.80;;;;;;;3.17;100.00;96976.19;1223957;75;2924700;-64
2024/02/27 00:12:16;;;;;;;3.55;2.25;;;;;;;3.42;100.00;96976.00;1225538;75;2925551;-62
2024/02/27 00:14:49;;;;;;;3.25;2.20;;;;;;;3.40;100.00;96980.38;1224989;75;2921762;-65
2024/02/27 00:17:24;;;;;;;2.45;1.70;;;;;;;3.40;100.00;96974.94;1224612;75;2924809;-63
2024/02/27 00:19:57;;;;;;;2.45;1.60;;;;;;;3.45;100.00;96971.66;1224501;75;2920751;-64
2024/02/27 00:22:30;;;;;;;1.85;1.60;;;;;;;3.42;100.00;96967.91;1224358;75;2926569;-61
2024/02/27 00:25:02;;;;;;;2.35;1.60;;;;;;;3.42;100.00;96967.91;1220558;75;3130967;-62
2024/02/27 00:27:38;;;;;;;2.40;1.80;;;;;;;3.30;100.00;96963.34;1225045;75;2922392;-65
2024/02/27 00:30:12;;;;;;;2.20;1.70;;;;;;;3.31;100.00;96966.78;1223855;75;2924926;-62
2024/02/27 00:32:45;;;;;;;3.95;2.85;;;;;;;2.95;100.00;96968.09;1225274;75;2880542;-63
2024/02/27 00:35:18;;;;;;;5.15;3.20;;;;;;;2.86;100.00;96965.31;1225245;75;2920620;-63
2024/02/27 00:37:51;;;;;;;4.50;2.60;;;;;;;3.10;100.00;96963.69;1224329;75;2919306;-62
2024/02/27 00:40:24;;;;;;;2.60;1.80;;;;;;;3.20;100.00;96967.94;1223165;75;2919356;-63
2024/02/27 00:42:59;;;;;;;2.05;1.85;;;;;;;3.23;100.00;96971.72;1224687;75;2924275;-62
2024/02/27 00:45:32;;;;;;;2.05;1.65;;;;;;;3.16;100.00;96978.13;1224233;75;2924934;-66
2024/02/27 00:48:06;;;;;;;1.80;1.50;;;;;;;3.13;100.00;96979.03;1225465;75;2919948;-64
2024/02/27 00:50:39;;;;;;;2.50;1.90;;;;;;;2.83;100.00;96977.78;1224989;75;2924463;-62
2024/02/27 00:53:12;;;;;;;3.45;2.50;;;;;;;2.85;100.00;96982.75;1225050;75;2910615;-62
2024/02/27 00:55:44;;;;;;;3.15;2.20;;;;;;;2.92;100.00;96982.50;1224595;75;2923605;-60
2024/02/27 00:58:20;;;;;;;2.45;1.80;;;;;;;2.82;100.00;96989.03;1225028;75;2921485;-61
2024/02/27 01:00:53;;;;;;;2.35;2.05;;;;;;;2.84;100.00;96987.41;1224207;75;2920461;-61
2024/02/27 01:03:26;;;;;;;2.40;1.90;;;;;;;2.86;100.00;96993.13;1225062;75;2913881;-65
2024/02/27 01:05:59;;;;;;;1.90;1.65;;;;;;;2.95;100.00;96987.00;1224277;75;2966992;-62
2024/02/27 01:08:32;;;;;;;2.15;1.55;;;;;;;2.94;100.00;96997.09;1224426;75;2918105;-62
2024/02/27 01:11:05;;;;;;;2.25;1.40;;;;;;;2.91;100.00;96989.09;1224843;75;2921435;-64
2024/02/27 01:13:41;;;;;;;2.25;1.60;;;;;;;2.75;100.00;96987.34;1224521;75;2920263;-64
2024/02/27 01:16:14;;;;;;;2.95;1.55;;;;;;;2.74;100.00;96985.81;1224059;75;2924955;-64
2024/02/27 01:18:47;;;;;;;2.30;1.70;;;;;;;2.62;100.00;96990.09;1224978;75;2919173;-63
2024/02/27 01:21:20;;;;;;;1.85;1.60;;;;;;;2.41;100.00;96990.81;1224646;75;2926455;-62
2024/02/27 01:23:52;;;;;;;2.55;1.70;;;;;;;2.66;100.00;96993.41;1224545;75;2926254;-62
2024/02/27 01:26:25;;;;;;;1.60;1.30;;;;;;;2.65;100.00;96997.31;1224299;75;2921936;-62
2024/02/27 01:29:01;;;;;;;2.00;1.50;;;;;;;2.51;100.00;96998.56;1224709;75;2920887;-64
2024/02/27 01:31:34;;;;;;;1.90;1.50;;;;;;;2.47;100.00;97006.00;1224314;75;2918388;-61
2024/02/27 01:34:06;;;;;;;2.70;1.50;;;;;;;2.57;100.00;96996.03;1224685;75;2922774;-63
2024/02/27 01:36:39;;;;;;;1.90;1.60;;;;;;;2.35;100.00;97001.41;1224412;75;2918042;-65
2024/02/27 01:39:12;;;;;;;2.75;1.95;;;;;;;2.29;100.00;97003.16;1223559;75;2925000;-61
2024/02/27 01:41:52;;;;;;;3.15;2.00;;;;;;;2.46;100.00;96998.38;1225061;75;2915508;-63
2024/02/27 01:44:28;;;;;;;2.15;1.70;;;;;;;2.44;100.00;96998.03;1224715;83;2915348;-62
2024/02/27 01:47:03;;;;;;;1.70;1.50;;;;;;;2.51;100.00;96992.41;1224184;75;2916652;-65
2024/02/27 01:49:36;;;;;;;1.40;1.30;;;;;;;2.53;100.00;97003.53;1223921;75;2922355;-64
2024/02/27 01:52:09;;;;;;;1.60;1.30;;;;;;;2.31;100.00;96990.00;1224410;75;2918924;-61
2024/02/27 01:54:42;;;;;;;2.65;1.70;;;;;;;2.11;100.00;96999.06;1224203;75;2928735;-64
2024/02/27 01:57:16;;;;;;;2.55;1.85;;;;;;;2.28;100.00;96982.75;1224631;75;2917495;-62
2024/02/27 01:59:52;;;;;;;1.70;1.40;;;;;;;2.30;100.00;96980.34;1224562;75;2919404;-63
2024/02/27 02:02:26;;;;;;;2.45;1.70;;;;;;;2.11;100.00;96982.88;1224917;75;2916022;-60
2024/02/27 02:04:58;;;;;;;1.40;1.30;;;;;;;2.25;100.00;96978.22;1224638;75;2932059;-64
2024/02/27 02:07:31;;;;;;;2.60;1.90;;;;;;;2.29;100.00;96981.56;1224108;75;2919667;-64
2024/02/27 02:10:04;;;;;;;1.30;1.15;;;;;;;2.27;100.00;96978.53;1224818;75;2911876;-65
2024/02/27 02:12:37;;;;;;;1.80;1.50;;;;;;;2.26;100.00;96975.09;1223975;75;2913988;-63
2024/02/27 02:15:13;;;;;;;1.95;1.30;;;;;;;2.28;100.00;96980.78;1224261;75;2920002;-61
2024/02/27 02:17:47;;;;;;;1.50;1.10;;;;;;;2.26;100.00;96977.78;1224618;75;2922299;-62
2024/02/27 02:20:23;;;;;;;1.50;1.40;;;;;;;2.21;100.00;96985.66;1223837;75;2920901;-63
2024/02/27 02:22:55;;;;;;;3.15;2.10;;;;;;;2.04;100.00;96979.66;1224563;75;2918719;-66
2024/02/27 02:25:31;;;;;;;4.00;2.65;;;;;;;1.96;100.00;97000.72;1224128;75;2927583;-65
2024/02/27 02:28:04;;;;;;;4.55;2.40;;;;;;;2.24;100.00;96996.38;1224417;75;2935986;-64
2024/02/27 02:30:37;;;;;;;4.25;2.35;;;;;;;2.01;100.00;97002.13;1224462;75;2930677;-60
2024/02/27 02:33:11;;;;;;;4.15;3.10;;;;;;;1.64;100.00;96989.00;1223596;75;2922103;-63
2024/02/27 02:35:50;;;;;;;3.75;2.60;;;;;;;1.45;100.00;96996.09;1223992;75;2923941;-61
2024/02/27 02:38:23;;;;;;;3.60;2.70;;;;;;;1.58;100.00;97000.75;1224308;75;2922237;-62
2024/02/27 02:40:55;;;;;;;2.35;1.90;;;;;;;1.82;100.00;96998.47;1223287;75;2919346;-63
2024/02/27 02:43:28;;;;;;;2.40;2.00;;;;;;;1.93;100.00;97001.59;1224618;75;2928376;-61
2024/02/27 02:46:01;;;;;;;2.75;1.80;;;;;;;1.86;100.00;97005.28;1223950;75;2928722;-63
2024/02/27 02:48:35;;;;;;;1.75;1.50;;;;;;;1.89;100.00;97009.06;1222863;75;2921915;-61
2024/02/27 02:51:11;;;;;;;2.55;1.75;;;;;;;1.83;100.00;97011.53;1223269;75;2921259;-60
2024/02/27 02:53:44;;;;;;;1.85;1.50;;;;;;;1.72;100.00;97005.72;1224377;75;2917873;-61
2024/02/27 02:56:17;;;;;;;2.40;1.45;;;;;;;1.75;100.00;97007.53;1223878;75;2918407;-61
2024/02/27 02:58:50;;;;;;;2.25;1.60;;;;;;;1.66;100.00;97010.91;1223935;75;2923945;-63
2024/02/27 03:01:23;;;;;;;1.90;1.50;;;;;;;1.70;100.00;97003.44;1223973;75;2920153;-60
2024/02/27 03:03:56;;;;;;;1.90;1.65;;;;;;;1.68;100.00;97003.13;1224336;75;2922977;-63
2024/02/27 03:06:31;;;;;;;1.95;1.60;;;;;;;1.65;100.00;97011.31;1224262;75;2917778;-64
2024/02/27 03:09:04;;;;;;;1.60;1.40;;;;;;;1.62;100.00;97012.94;1224530;75;2930380;-62
2024/02/27 03:11:37;;;;;;;2.40;1.80;;;;;;;1.55;100.00;97021.25;1222500;75;2919008;-63
2024/02/27 03:14:10;;;;;;;4.95;2.65;;;;;;;1.35;100.00;97031.47;1223457;75;2927791;-64
2024/02/27 03:16:44;;;;;;;3.50;2.50;;;;;;;1.24;100.00;97029.84;1224667;75;2921105;-60
2024/02/27 03:19:17;;;;;;;3.55;2.50;;;;;;;1.43;100.00;97030.84;1224869;75;2917004;-62
2024/02/27 03:21:55;;;;;;;2.80;2.30;;;;;;;1.40;100.00;97031.69;1224536;75;2919745;-63
2024/02/27 03:24:28;;;;;;;2.75;2.25;;;;;;;1.28;100.00;97030.50;1224711;75;2920285;-61
2024/02/27 03:27:00;;;;;;;3.60;2.90;;;;;;;1.23;100.00;97033.72;1224522;75;2925974;-60
2024/02/27 03:29:33;;;;;;;3.10;2.75;;;;;;;1.15;100.00;97037.03;1225226;75;2916814;-64
2024/02/27 03:32:06;;;;;;;4.40;2.90;;;;;;;1.26;100.00;97032.09;1224484;75;2924250;-64
2024/02/27 03:34:39;;;;;;;2.55;2.20;;;;;;;1.33;100.00;97039.25;1224345;75;2924474;-65
2024/02/27 03:37:15;;;;;;;3.80;2.55;;;;;;;1.39;100.00;97040.97;1224597;75;2921628;-61
2024/02/27 03:39:47;;;;;;;2.45;2.00;;;;;;;1.47;100.00;97042.28;1225194;75;2924306;-59
2024/02/27 03:42:20;;;;;;;2.00;1.80;;;;;;;1.37;100.00;97051.44;1223605;75;2917957;-61
2024/02/27 03:44:53;;;;;;;1.90;1.70;;;;;;;1.42;100.00;97058.22;1224331;75;2915659;-60
2024/02/27 03:47:26;;;;;;;3.85;1.80;;;;;;;1.35;100.00;97055.72;1225286;75;2920880;-64
2024/02/27 03:49:59;;;;;;;1.95;1.60;;;;;;;1.43;100.00;97063.19;1224285;75;2937623;-62
2024/02/27 03:52:34;;;;;;;1.90;1.60;;;;;;;1.39;100.00;97057.13;1223870;75;2921431;-61
2024/02/27 03:55:08;;;;;;;1.70;1.40;;;;;;;1.47;100.00;97066.56;1224805;75;2921057;-63
2024/02/27 03:57:41;;;;;;;1.95;1.50;;;;;;;1.48;100.00;97062.66;1224654;75;2920760;-61
2024/02/27 04:00:15;;;;;;;1.95;1.60;;;;;;;1.33;100.00;97058.13;1224524;75;2931413;-60
2024/02/27 04:02:48;;;;;;;2.85;2.15;;;;;;;1.30;100.00;97065.13;1224652;75;2920768;-63
2024/02/27 04:05:21;;;;;;;2.65;1.95;;;;;;;1.40;100.00;97063.31;1224232;75;2921445;-63
2024/02/27 04:07:57;;;;;;;2.40;2.00;;;;;;;1.35;100.00;97064.59;1224303;75;2929418;-63
2024/02/27 04:10:30;;;;;;;2.70;2.10;;;;;;;1.37;100.00;97058.75;1222838;75;2927174;-62
2024/02/27 04:13:02;;;;;;;2.25;1.90;;;;;;;1.35;100.00;97059.22;1223784;75;2920410;-61
2024/02/27 04:15:35;;;;;;;2.40;1.60;;;;;;;1.39;100.00;97061.78;1224495;75;2921180;-63
2024/02/27 04:18:09;;;;;;;2.75;1.90;;;;;;;1.16;100.00;97055.50;1224875;75;2922149;-66
2024/02/27 04:20:43;;;;;;;3.05;2.10;;;;;;;1.05;100.00;97069.25;1223862;75;2923151;-65
2024/02/27 04:23:19;;;;;;;3.75;2.45;;;;;;;1.13;100.00;97080.59;1224508;75;2923109;-62
2024/02/27 04:25:52;;;;;;;2.95;2.20;;;;;;;1.14;100.00;97076.72;1223957;75;2927928;-61
2024/02/27 04:28:25;;;;;;;2.75;2.25;;;;;;;1.15;100.00;97077.47;1224660;75;2923801;-63
2024/02/27 04:30:58;;;;;;;2.45;2.00;;;;;;;1.10;100.00;97076.06;1224120;75;2918148;-63
2024/02/27 04:33:31;;;;;;;3.40;2.35;;;;;;;1.22;100.00;97077.28;1224733;75;2922179;-64
2024/02/27 04:36:04;;;;;;;1.65;1.35;;;;;;;1.10;100.00;97081.44;1224502;75;2918414;-63
2024/02/27 04:38:39;;;;;;;2.95;1.90;;;;;;;1.13;100.00;97080.59;1224185;75;2925134;-62
2024/02/27 04:41:12;;;;;;;1.80;1.60;;;;;;;1.20;100.00;97087.72;1223890;75;2926003;-65
2024/02/27 04:43:45;;;;;;;2.30;1.55;;;;;;;1.11;100.00;97091.06;1224063;75;2924495;-62
2024/02/27 04:46:17;;;;;;;3.25;1.90;;;;;;;0.96;100.00;97090.69;1224460;75;2916891;-64
2024/02/27 04:48:50;;;;;;;3.90;2.50;;;;;;;1.04;100.00;97094.69;1223887;75;2927909;-63
2024/02/27 04:51:23;;;;;;;2.15;1.60;;;;;;;0.99;100.00;97105.25;1224811;75;2917745;-62
2024/02/27 04:53:58;;;;;;;2.10;1.75;;;;;;;1.12;100.00;97102.59;1224326;75;2917920;-63
2024/02/27 04:56:31;;;;;;;3.45;2.10;;;;;;;1.15;100.00;97110.56;1223837;75;2918882;-64
2024/02/27 04:59:04;;;;;;;3.00;2.10;;;;;;;1.22;100.00;97101.53;1224292;75;2928373;-64
2024/02/27 05:01:37;;;;;;;2.70;1.90;;;;;;;1.18;100.00;97106.25;1223997;75;2942325;-61
2024/02/27 05:04:10;;;;;;;2.20;1.90;;;;;;;1.16;100.00;97106.72;1223785;75;2922333;-62
2024/02/27 05:06:43;;;;;;;2.65;1.90;;;;;;;1.18;100.00;97111.66;1223603;75;2926463;-62
2024/02/27 05:09:18;;;;;;;1.85;1.65;;;;;;;1.11;100.00;97111.84;1224647;75;2918245;-61
2024/02/27 05:11:51;;;;;;;2.25;1.90;;;;;;;1.15;100.00;97115.22;1223238;75;2919414;-63
2024/02/27 05:14:25;;;;;;;2.55;1.85;;;;;;;1.12;100.00;97114.13;1223935;75;2925065;-63
2024/02/27 05:16:58;;;;;;;2.65;1.90;;;;;;;1.07;100.00;97120.03;1223936;75;2928691;-64
2024/02/27 05:19:32;;;;;;;2.30;2.00;;;;;;;1.17;100.00;97118.25;1221482;83;3030696;-61
2024/02/27 05:22:04;;;;;;;2.10;1.55;;;;;;;1.05;100.00;97122.41;1223410;75;2922963;-64
2024/02/27 05:24:40;;;;;;;2.90;2.30;;;;;;;1.11;100.00;97118.00;1223571;75;2926300;-64
2024/02/27 05:27:13;;;;;;;3.55;3.05;;;;;;;1.14;100.00;97121.78;1223481;75;2917760;-65
2024/02/27 05:29:46;;;;;;;13.25;9.30;;;;;;;1.08;100.00;97126.19;1222797;75;2951998;-63
2024/02/27 05:32:19;;;;;;;11.05;8.20;;;;;;;1.14;100.00;97125.25;1222701;75;2926113;-64
2024/02/27 05:34:52;;;;;;;8.35;6.90;;;;;;;1.18;100.00;97122.44;1223115;75;2925494;-63
2024/02/27 05:37:25;;;;;;;6.75;5.20;;;;;;;1.19;100.00;97126.66;1223498;75;2923144;-63
2024/02/27 05:40:02;;;;;;;5.25;4.05;;;;;;;1.17;100.00;97131.72;1223691;75;2929238;-62
2024/02/27 05:42:34;;;;;;;5.20;4.15;;;;;;;1.10;100.00;97132.66;1223952;75;2923381;-62
2024/02/27 05:45:08;;;;;;;7.95;5.25;;;;;;;1.01;100.00;97127.13;1223895;75;2938300;-64
2024/02/27 05:47:41;;;;;;;7.65;5.35;;;;;;;1.24;100.00;97126.91;1223247;75;2922685;-63
2024/02/27 05:50:14;;;;;;;7.60;4.90;;;;;;;1.26;100.00;97131.88;1224538;75;2916719;-63
2024/02/27 05:52:47;;;;;;;7.70;5.45;;;;;;;1.24;100.00;97126.16;1224213;75;2930674;-65
2024/02/27 05:55:22;;;;;;;5.85;4.70;;;;;;;1.26;100.00;97129.16;1223539;75;2925090;-64
2024/02/27 05:57:55;;;;;;;8.10;5.25;;;;;;;1.19;100.00;97130.13;1223774;75;2918714;-62
2024/02/27 06:00:28;;;;;;;7.95;4.15;;;;;;;1.28;100.00;97127.56;1223345;75;2927400;-63
2024/02/27 06:03:01;;;;;;;7.65;3.80;;;;;;;1.27;100.00;97139.53;1220097;75;2951942;-64
2024/02/27 06:05:34;;;;;;;6.70;4.10;;;;;;;1.16;100.00;97136.38;1220212;75;2991756;-62
2024/02/27 06:08:08;;;;;;;4.65;3.15;;;;;;;1.21;100.00;97135.84;1223609;75;2928064;-61
2024/02/27 06:10:45;;;;;;;4.00;2.75;;;;;;;1.25;100.00;97138.44;1222534;75;2927476;-62
2024/02/27 06:13:18;;;;;;;4.05;2.70;;;;;;;1.38;100.00;97141.94;1224291;75;2924548;-59
2024/02/27 06:15:51;;;;;;;3.45;2.45;;;;;;;1.32;100.00;97132.84;1223640;75;2929051;-63
2024/02/27 06:18:24;;;;;;;3.35;2.40;;;;;;;1.44;100.00;97134.06;1224128;75;2935718;-64
2024/02/27 06:23:42;;;;;;;3.05;2.10;;;;;;;1.63;100.00;97137.78;1223282;75;2931077;-62
2024/02/27 06:26:18;;;;;;;4.35;2.50;;;;;;;1.63;100.00;97140.50;1223199;75;2926327;-62
2024/02/27 06:28:54;;;;;;;2.05;1.85;;;;;;;1.69;100.00;97141.50;1222877;75;2932024;-61
2024/02/27 06:31:27;;;;;;;2.60;2.00;;;;;;;1.63;100.00;97148.59;1223934;75;2933532;-62
2024/02/27 06:33:59;;;;;;;2.80;1.90;;;;;;;1.81;100.00;97151.56;1223294;75;2922084;-64
2024/02/27 06:36:36;;;;;;;5.05;2.20;;;;;;;1.90;100.00;97150.91;1223197;75;2907305;-60
2024/02/27 06:39:09;;;;;;;2.10;1.80;;;;;;;2.03;100.00;97150.94;1222392;75;2926911;-65
2024/02/27 06:41:50;;;;;;;3.00;2.20;;;;;;;2.11;100.00;97152.97;1223145;75;2949362;-66
2024/02/27 06:44:24;;;;;;;5.35;3.45;;;;;;;2.17;100.00;97157.88;1224052;75;2930299;-62
2024/02/27 06:46:56;;;;;;;10.35;5.50;;;;;;;2.30;100.00;97162.06;1222900;75;2923657;-63
2024/02/27 06:49:29;;;;;;;8.05;4.55;;;;;;;2.41;100.00;97164.44;1223241;75;2929558;-62
2024/02/27 06:52:02;;;;;;;6.75;5.00;;;;;;;2.61;100.00;97164.22;1223838;75;2918862;-62
2024/02/27 06:54:35;;;;;;;6.15;4.30;;;;;;;2.72;100.00;97161.19;1224082;75;2922685;-63
2024/02/27 06:57:10;;;;;;;4.95;3.20;;;;;;;2.87;100.00;97170.34;1223632;75;2932080;-62
2024/02/27 06:59:43;;;;;;;4.40;3.00;;;;;;;3.12;100.00;97176.88;1224290;75;2921026;-62
2024/02/27 07:02:16;;;;;;;4.60;2.90;;;;;;;3.25;100.00;97180.31;1223944;75;2932610;-65
2024/02/27 07:04:49;;;;;;;3.90;2.95;;;;;;;3.33;100.00;97175.41;1223791;75;2927828;-62
2024/02/27 07:07:24;;;;;;;3.85;2.90;;;;;;;3.41;100.00;97182.81;1223575;75;2928366;-61
2024/02/27 07:09:57;;;;;;;5.80;3.60;;;;;;;3.44;100.00;97185.84;1224648;75;2920733;-62
2024/02/27 07:12:32;;;;;;;4.60;3.40;;;;;;;3.60;100.00;97191.09;1224308;75;2919893;-64
2024/02/27 07:15:05;;;;;;;7.75;3.95;;;;;;;3.43;100.00;97190.50;1225391;75;2923507;-65
2024/02/27 07:17:38;;;;;;;9.75;4.30;;;;;;;3.42;100.00;97184.34;1223946;75;2923934;-62
2024/02/27 07:20:12;;;;;;;6.65;3.90;;;;;;;3.44;100.00;97192.03;1224446;75;2925897;-62
2024/02/27 07:22:47;;;;;;;7.75;3.70;;;;;;;3.49;100.00;97198.81;1213860;75;2907717;-60
2024/02/27 07:25:20;;;;;;;6.60;3.85;;;;;;;3.69;100.00;97204.69;1220879;75;2933949;-62
2024/02/27 07:27:55;;;;;;;7.55;4.15;;;;;;;3.68;100.00;97203.19;1223813;75;2922937;-65
2024/02/27 07:30:28;;;;;;;6.50;4.20;;;;;;;3.58;100.00;97207.00;1223542;75;2929417;-59
2024/02/27 07:33:02;;;;;;;8.50;4.70;;;;;;;3.65;100.00;97209.47;1217384;75;3387438;-61
2024/02/27 07:35:35;;;;;;;6.40;4.45;;;;;;;3.91;100.00;97217.47;1224321;75;2925832;-65
2024/02/27 07:38:08;;;;;;;5.85;4.60;;;;;;;3.96;100.00;97212.25;1223460;75;2924821;-60
2024/02/27 07:40:41;;;;;;;6.10;4.65;;;;;;;4.18;100.00;97211.47;1223009;75;2922221;-63
2024/02/27 07:43:16;;;;;;;7.65;6.00;;;;;;;4.07;100.00;97213.81;1225355;75;2918364;-64
2024/02/27 07:45:51;;;;;;;9.75;5.90;;;;;;;4.53;100.00;97214.81;1224279;75;2919856;-62
2024/02/27 07:48:24;;;;;;;8.60;6.10;;;;;;;4.68;100.00;97212.28;1224483;75;2930137;-62
2024/02/27 07:50:57;;;;;;;8.65;5.90;;;;;;;4.47;100.00;97211.94;1222984;75;2928170;-64
2024/02/27 07:53:30;;;;;;;7.10;5.75;;;;;;;4.70;100.00;97210.66;1222016;75;2927130;-63
2024/02/27 07:56:03;;;;;;;9.65;5.35;;;;;;;5.00;100.00;97205.59;1223848;75;2922589;-65
2024/02/27 07:58:44;;;;;;;6.75;5.60;;;;;;;4.96;100.00;97205.00;1224135;75;2927040;-64
2024/02/27 08:01:17;;;;;;;6.90;5.10;;;;;;;4.98;100.00;97209.97;1223226;75;2926285;-63
2024/02/27 08:03:50;;;;;;;5.35;4.40;;;;;;;5.26;100.00;97203.38;1223882;75;2930779;-62
2024/02/27 08:06:23;;;;;;;5.80;3.50;;;;;;;5.29;100.00;97205.22;1223524;75;2928069;-64
2024/02/27 08:08:56;;;;;;;4.85;3.70;;;;;;;5.38;100.00;97206.41;1224479;75;2923064;-63
2024/02/27 08:11:29;;;;;;;7.05;4.35;;;;;;;5.45;100.00;97203.41;1223528;75;2921174;-64
2024/02/27 08:14:05;;;;;;;6.15;4.70;;;;;;;5.83;100.00;97205.66;1222940;75;2958387;-61
2024/02/27 08:16:37;;;;;;;5.20;3.60;;;;;;;6.06;100.00;97204.28;1224110;75;2925860;-61
2024/02/27 08:19:13;;;;;;;6.35;3.65;;;;;;;6.50;98.08;97203.09;1223351;75;2928596;-61
2024/02/27 08:21:48;;;;;;;4.45;2.95;;;;;;;6.45;95.51;97206.47;1213586;67;3133178;-65
2024/02/27 08:24:21;;;;;;;7.20;4.25;;;;;;;6.18;97.09;97197.94;1223458;75;2934499;-63
2024/02/27 08:26:53;;;;;;;7.20;4.95;;;;;;;6.50;96.56;97198.41;1224347;75;2924172;-63
2024/02/27 08:29:29;;;;;;;10.50;6.20;;;;;;;6.64;96.58;97209.84;1224173;75;2921933;-63
2024/02/27 08:32:02;;;;;;;8.95;6.35;;;;;;;7.14;96.61;97210.19;1222557;75;2927457;-62
2024/02/27 08:34:35;;;;;;;9.65;6.75;;;;;;;7.49;92.11;97215.84;1223854;75;2922257;-61
2024/02/27 08:37:08;;;;;;;10.45;7.15;;;;;;;7.54;88.54;97206.28;1224738;75;2918400;-63
2024/02/27 08:39:40;;;;;;;10.20;6.65;;;;;;;7.88;85.63;97208.41;1224146;75;2933138;-63
2024/02/27 08:42:13;;;;;;;7.85;5.80;;;;;;;8.42;83.89;97202.13;1223924;75;2924056;-64
2024/02/27 08:44:49;;;;;;;5.90;4.25;;;;;;;8.95;79.12;97188.28;1222519;75;2949916;-64
2024/02/27 08:47:22;;;;;;;11.15;6.00;;;;;;;8.15;80.98;97184.81;1223416;75;2927431;-60
2024/02/27 08:49:55;;;;;;;10.00;5.80;;;;;;;8.80;78.72;97189.56;1222806;75;2919426;-63
2024/02/27 08:52:27;;;;;;;7.95;4.70;;;;;;;9.43;76.06;97187.16;1224041;75;2921305;-63
2024/02/27 08:55:00;;;;;;;6.15;3.85;;;;;;;10.13;72.82;97185.38;1223755;75;2933454;-62
2024/02/27 08:57:34;;;;;;;8.90;3.35;;;;;;;10.52;70.52;97193.91;1223910;75;2923604;-62
2024/02/27 09:00:16;;;;;;;3.50;2.60;;;;;;;11.09;67.02;97195.03;1223241;75;2924821;-63
2024/02/27 09:02:48;;;;;;;3.75;2.30;;;;;;;11.78;64.11;97189.28;1223630;75;2922905;-65
2024/02/27 09:05:21;;;;;;;3.35;2.00;;;;;;;11.94;64.04;97190.63;1223492;75;2929173;-64
2024/02/27 09:07:54;;;;;;;3.60;2.30;;;;;;;12.43;62.27;97204.13;1224274;75;2922142;-63
2024/02/27 09:10:28;;;;;;;4.25;2.75;;;;;;;12.11;62.31;97212.59;1223578;75;2925072;-60
2024/02/27 09:13:00;;;;;;;4.65;3.10;;;;;;;10.77;64.78;97210.75;1223174;75;2933017;-63
2024/02/27 09:15:36;;;;;;;10.65;3.00;;;;;;;10.79;65.73;97217.25;1224150;75;2919607;-63
2024/02/27 09:18:09;;;;;;;7.35;3.00;;;;;;;10.48;66.50;97220.75;1223094;75;2927042;-64
2024/02/27 09:20:43;;;;;;;4.65;2.55;;;;;;;10.96;66.62;97217.34;1222552;75;2924794;-63
2024/02/27 09:23:16;;;;;;;6.35;3.10;;;;;;;11.71;66.25;97215.22;1223045;75;2928720;-63
2024/02/27 09:25:48;;;;;;;9.15;3.25;;;;;;;11.54;65.38;97227.34;1222311;75;2931399;-64
2024/02/27 09:28:21;;;;;;;6.50;2.75;;;;;;;11.24;63.76;97225.75;1223082;75;2930750;-64
2024/02/27 09:30:59;;;;;;;7.65;4.20;;;;;;;11.58;63.23;97223.16;1223250;75;2923550;-64
2024/02/27 09:33:32;;;;;;;6.15;3.05;;;;;;;12.17;61.18;97221.59;1222198;75;2922529;-61
2024/02/27 09:36:04;;;;;;;5.20;2.75;;;;;;;12.24;60.46;97218.34;1223583;75;2925587;-61
2024/02/27 09:38:37;;;;;;;4.65;2.10;;;;;;;12.68;57.69;97216.13;1223676;75;2922194;-62
2024/02/27 09:41:16;;;;;;;5.30;2.60;;;;;;;12.67;58.36;97209.09;1222410;75;2927735;-63
2024/02/27 09:43:52;;;;;;;5.60;2.70;;;;;;;12.23;60.48;97219.59;1222372;75;2928429;-62
2024/02/27 09:46:32;;;;;;;3.65;2.30;;;;;;;13.28;58.59;97229.53;1223325;75;2930953;-63
2024/02/27 09:49:07;;;;;;;4.70;2.95;;;;;;;12.91;57.90;97223.06;1223556;75;2925183;-61
2024/02/27 09:51:45;;;;;;;7.25;2.90;;;;;;;14.02;56.42;97222.41;1222962;75;2927179;-64
2024/02/27 09:54:19;;;;;;;;;;;;;;;13.89;55.44;97212.00;1224892;75;2931214;-62
2024/02/27 09:56:52;;;;;;;5.30;3.05;;;;;;;14.34;54.80;97224.75;1222484;75;2927158;-63
2024/02/27 09:59:25;;;;;;;5.60;3.10;;;;;;;14.49;55.79;97220.34;1223305;75;2924329;-63
2024/02/27 10:02:07;;;;;;;5.90;2.60;;;;;;;15.60;54.02;97205.22;1223451;75;2936626;-60
2024/02/27 10:04:43;;;;;;;3.65;2.40;;;;;;;16.38;52.64;97208.19;1223372;75;2924237;-63
2024/02/27 10:07:18;;;;;;;4.70;2.65;;;;;;;16.18;51.14;97203.97;1223493;75;2922688;-67
2024/02/27 10:09:51;;;;;;;7.50;2.55;;;;;;;15.59;51.23;97203.00;1223209;75;2928548;-65
2024/02/27 10:12:24;;;;;;;5.80;2.20;;;;;;;15.88;51.09;97206.91;1223910;75;2925068;-64
2024/02/27 10:14:58;;;;;;;5.40;2.45;;;;;;;16.60;48.69;97207.84;1224208;75;2918284;-62
2024/02/27 10:17:37;;;;;;;4.10;2.30;;;;;;;16.27;49.90;97216.66;1223591;67;2927045;-63
2024/02/27 10:20:13;;;;;;;5.95;2.80;;;;;;;15.88;50.45;97210.41;1221924;75;2934705;-63
2024/02/27 10:22:46;;;;;;;4.15;2.30;;;;;;;16.47;49.16;97216.06;1221884;75;2940489;-63
2024/02/27 10:25:19;;;;;;;4.10;2.35;;;;;;;15.59;50.94;97231.34;1223346;75;2933940;-64
2024/02/27 10:27:52;;;;;;;4.80;2.15;;;;;;;16.28;49.25;97215.38;1223342;75;2930995;-61
2024/02/27 10:30:27;;;;;;;3.30;2.00;;;;;;;16.82;48.73;97219.81;1223207;75;2927955;-64
2024/02/27 10:33:11;;;;;;;3.95;2.10;;;;;;;16.61;49.78;97220.38;1223197;75;2926905;-66
2024/02/27 10:35:44;;;;;;;3.35;1.90;;;;;;;15.86;49.32;97215.72;1223611;75;2926804;-64
2024/02/27 10:38:22;;;;;;;4.25;2.15;;;;;;;15.46;50.52;97229.22;1223644;75;2925988;-62
2024/02/27 10:40:54;;;;;;;3.90;1.90;;;;;;;14.48;53.02;97229.16;1223319;75;2921747;-63
2024/02/27 10:43:29;;;;;;;3.30;1.90;;;;;;;14.45;54.64;97230.16;1222974;75;2922706;-62
2024/02/27 10:46:02;;;;;;;6.45;2.20;;;;;;;13.36;56.26;97222.97;1223748;75;2920111;-65
2024/02/27 10:48:38;;;;;;;4.65;2.40;;;;;;;13.63;56.79;97223.38;1224280;75;2925461;-65
2024/02/27 10:51:11;;;;;;;3.15;2.00;;;;;;;13.20;57.10;97224.53;1222876;75;2927067;-65
2024/02/27 10:53:48;;;;;;;4.65;2.10;;;;;;;13.20;57.36;97232.75;1224151;75;2920837;-65
2024/02/27 10:56:23;;;;;;;4.55;2.55;;;;;;;13.33;57.78;97231.50;1222559;75;2924450;-64
2024/02/27 10:58:57;;;;;;;4.25;2.10;;;;;;;12.96;57.52;97227.81;1223683;75;2924994;-65
2024/02/27 11:01:32;;;;;;;2.95;2.10;;;;;;;12.71;58.05;97228.84;1221937;75;2928128;-63
2024/02/27 11:04:14;;;;;;;6.05;2.30;;;;;;;13.00;58.42;97222.78;1224054;75;2921766;-63
2024/02/27 11:06:49;;;;;;;3.50;1.55;;;;;;;12.63;58.55;97227.81;1223566;75;2909970;-66
2024/02/27 11:09:28;;;;;;;5.90;2.05;;;;;;;12.52;58.89;97234.81;1223045;75;2928301;-58
2024/02/27 11:12:06;;;;;;;3.75;2.30;;;;;;;12.49;60.03;97237.84;1222920;75;2944065;-66
2024/02/27 11:14:44;;;;;;;5.20;2.20;;;;;;;12.62;59.49;97231.84;1224481;75;2928894;-61
2024/02/27 11:17:23;;;;;;;5.55;2.10;;;;;;;12.17;59.90;97231.78;1224176;75;2921879;-64
2024/02/27 11:20:06;;;;;;;3.95;2.20;;;;;;;12.32;60.50;97230.31;1223208;75;2923854;-63
2024/02/27 11:22:39;;;;;;;4.50;2.30;;;;;;;12.39;60.25;97237.31;1223434;75;2932939;-62
2024/02/27 11:25:13;;;;;;;5.50;2.60;;;;;;;12.39;61.12;97239.31;1223678;75;2927155;-61
2024/02/27 11:27:46;;;;;;;3.55;2.05;;;;;;;12.53;60.94;97235.56;1224230;75;2916307;-62
2024/02/27 11:30:24;;;;;;;7.95;3.10;;;;;;;12.38;61.52;97244.03;1222919;75;2925257;-64
2024/02/27 11:32:59;;;;;;;8.00;2.10;;;;;;;12.15;61.80;97246.03;1224293;75;2924376;-65
2024/02/27 11:35:36;;;;;;;8.50;3.75;;;;;;;12.20;62.18;97237.06;1223890;75;2920292;-66
2024/02/27 11:38:10;;;;;;;6.20;3.00;;;;;;;12.28;62.50;97240.06;1223983;75;2923967;-62
2024/02/27 11:40:52;;;;;;;4.85;3.05;;;;;;;12.35;62.18;97243.03;1219721;75;2933638;-66
2024/02/27 11:43:28;;;;;;;5.85;2.60;;;;;;;12.20;63.74;97242.53;1222472;75;2925230;-65
2024/02/27 11:46:22;;;;;;;4.15;2.45;;;;;;;12.19;63.08;97241.03;1223453;75;2925587;-63
2024/02/27 11:48:55;;;;;;;3.75;2.50;;;;;;;12.25;63.91;97243.78;1223213;75;2929005;-63
2024/02/27 11:51:34;;;;;;;4.50;2.40;;;;;;;12.19;65.64;97246.50;1223648;75;2930209;-63